Time;durP1;ratioP1;P1;durP2;ratioP2;P2;SDS_P1;SDS_P2;PMS_P1;PMS_P2;Temp;Humidity;BMP_temperature;BMP_pressure;BME280_temperature;BME280_humidity;BME280_pressure;Samples;Min_cycle;Max_cycle;Signal;HPM_P1;HPM_P2
2020/12/07 00:02:09;;;;;;;21.52;7.58;;;;;;;-8.87;73.31;102978.44;1778840;79;26588;-84
2020/12/07 00:04:35;;;;;;;25.75;8.25;;;;;;;-8.89;73.58;102976.82;1780429;79;21851;-84
2020/12/07 00:07:03;;;;;;;21.37;8.18;;;;;;;-8.85;73.37;102968.78;1772934;79;27042;-84
2020/12/07 00:09:30;;;;;;;26.57;9.03;;;;;;;-8.86;73.46;102961.84;1779077;79;21114;-85
2020/12/07 00:11:55;;;;;;;25.30;8.15;;;;;;;-8.65;73.25;102965.63;1772133;79;21683;-85
2020/12/07 00:14:21;;;;;;;24.77;7.55;;;;;;;-8.93;73.64;102965.68;1775678;79;26638;-84
2020/12/07 00:16:47;;;;;;;24.47;8.48;;;;;;;-8.95;73.54;102965.73;1771646;80;21840;-84
2020/12/07 00:19:14;;;;;;;25.00;7.33;;;;;;;-8.99;73.95;102973.81;1771972;79;26934;-84
2020/12/07 00:21:43;;;;;;;21.70;8.13;;;;;;;-8.92;73.57;102979.12;1776589;79;21519;-84
2020/12/07 00:24:11;;;;;;;22.50;8.85;;;;;;;-8.89;73.50;102976.36;1775070;79;21118;-84
2020/12/07 00:26:37;;;;;;;23.52;8.45;;;;;;;-8.82;73.29;102971.23;1775119;79;21121;-84
2020/12/07 00:29:04;;;;;;;30.72;8.80;;;;;;;-8.90;73.56;102962.08;1775220;79;21971;-85
2020/12/07 00:31:30;;;;;;;21.35;7.90;;;;;;;-8.86;73.28;102959.23;1776252;79;21165;-84
2020/12/07 00:33:58;;;;;;;24.50;7.95;;;;;;;-8.91;73.38;102948.18;1776098;79;26552;-85
2020/12/07 00:36:23;;;;;;;22.73;7.45;;;;;;;-8.88;73.34;102945.84;1764131;80;21148;-84
2020/12/07 00:38:49;;;;;;;20.32;7.58;;;;;;;-8.96;73.75;102935.80;1776696;79;21500;-84
2020/12/07 00:41:21;;;;;;;23.77;8.23;;;;;;;-8.95;73.71;102930.95;1775770;80;21730;-84
2020/12/07 00:43:47;;;;;;;25.75;7.70;;;;;;;-8.97;74.07;102923.20;1777324;79;21195;-84
2020/12/07 00:46:14;;;;;;;20.88;7.67;;;;;;;-8.87;73.57;102920.97;1776832;79;27076;-84
2020/12/07 00:48:41;;;;;;;20.45;7.87;;;;;;;-8.86;73.45;102913.51;1774946;79;20904;-84
2020/12/07 00:51:07;;;;;;;23.85;8.18;;;;;;;-8.93;73.80;102905.14;1774917;79;21481;-84
2020/12/07 00:57:03;;;;;;;25.57;9.05;;;;;;;-8.86;73.68;102910.06;1773887;80;21144;-84
2020/12/07 00:59:29;;;;;;;22.20;8.23;;;;;;;-8.94;74.22;102896.92;1774926;79;21145;-84
2020/12/07 01:01:57;;;;;;;22.90;8.00;;;;;;;-8.98;74.45;102901.90;1776344;80;28924;-84
2020/12/07 01:04:24;;;;;;;22.73;7.58;;;;;;;-8.82;74.18;102900.70;1774107;79;21129;-84
2020/12/07 01:06:50;;;;;;;26.10;8.43;;;;;;;-8.89;74.09;102901.91;1773352;79;21210;-83
2020/12/07 01:09:18;;;;;;;26.65;8.28;;;;;;;-8.92;74.18;102895.06;1776742;79;22011;-84
2020/12/07 01:11:46;;;;;;;21.65;7.65;;;;;;;-8.97;74.40;102894.47;1774344;80;21181;-85
2020/12/07 01:14:13;;;;;;;20.75;7.95;;;;;;;-8.94;74.25;102893.45;1778908;79;21200;-84
2020/12/07 01:16:41;;;;;;;17.73;6.78;;;;;;;-8.91;74.59;102898.55;1754694;79;21133;-84
2020/12/07 01:19:08;;;;;;;20.85;7.62;;;;;;;-8.89;74.36;102891.45;1774813;79;21149;-84
2020/12/07 01:21:37;;;;;;;23.18;8.13;;;;;;;-8.89;74.33;102894.53;1780320;79;21150;-84
2020/12/07 01:24:05;;;;;;;20.40;6.97;;;;;;;-8.95;74.37;102890.45;1774929;80;21416;-84
2020/12/07 01:26:31;;;;;;;24.05;8.08;;;;;;;-9.01;74.43;102883.77;1773439;79;21185;-84
2020/12/07 01:32:38;;;;;;;22.55;7.53;;;;;;;-9.02;74.33;102892.53;1771523;79;21102;-84
2020/12/07 01:35:04;;;;;;;19.87;7.40;;;;;;;-9.04;74.66;102893.06;1773463;80;27030;-84
2020/12/07 01:37:30;;;;;;;29.75;8.55;;;;;;;-9.01;74.43;102890.30;1779139;79;21262;-85
2020/12/07 01:39:55;;;;;;;22.10;7.45;;;;;;;-8.83;73.96;102886.39;1778637;79;28256;-85
2020/12/07 01:42:21;;;;;;;21.25;7.55;;;;;;;-8.95;74.07;102887.37;1775985;79;26568;-85
2020/12/07 01:44:47;;;;;;;21.60;8.43;;;;;;;-8.98;74.25;102888.00;1773523;79;21795;-85
2020/12/07 01:47:24;;;;;;;21.82;7.58;;;;;;;-8.87;73.75;102888.31;1776843;79;26900;-84
2020/12/07 01:53:32;;;;;;;19.85;7.50;;;;;;;-8.94;73.72;102899.54;1666765;83;21182;-84
2020/12/07 01:55:58;;;;;;;27.25;7.45;;;;;;;-8.90;73.86;102893.70;1669857;84;21071;-86
2020/12/07 01:58:24;;;;;;;23.60;7.12;;;;;;;-8.92;73.98;102902.90;1655867;85;21253;-85
2020/12/07 02:00:50;;;;;;;25.45;8.68;;;;;;;-8.87;73.58;102895.31;1666992;85;21239;-84
2020/12/07 02:03:16;;;;;;;19.20;7.47;;;;;;;-8.90;73.97;102900.69;1664868;83;26676;-84
2020/12/07 02:05:42;;;;;;;20.37;7.35;;;;;;;-8.90;73.59;102908.53;1655215;85;28278;-85
2020/12/07 02:08:18;;;;;;;20.12;6.87;;;;;;;-8.93;73.76;102908.22;1665811;84;21396;-85
2020/12/07 02:10:46;;;;;;;23.52;8.10;;;;;;;-8.85;73.47;102903.47;1660528;83;21359;-84
2020/12/07 02:13:13;;;;;;;20.12;6.60;;;;;;;-8.85;73.66;102906.52;1659780;84;21182;-84
2020/12/07 02:15:40;;;;;;;21.15;7.05;;;;;;;-8.89;73.61;102904.98;1664961;85;21154;-85
2020/12/07 02:18:07;;;;;;;22.52;6.33;;;;;;;-8.92;73.78;102909.43;1667985;85;21224;-84
2020/12/07 02:20:34;;;;;;;22.85;7.30;;;;;;;-8.95;73.72;102904.83;1672953;84;21155;-85
2020/12/07 02:23:01;;;;;;;20.10;6.45;;;;;;;-8.98;73.87;102904.97;1658543;85;21156;-85
2020/12/07 02:25:27;;;;;;;22.48;8.00;;;;;;;-9.09;74.15;102906.80;1653822;84;21215;-84
2020/12/07 02:27:53;;;;;;;21.25;7.83;;;;;;;-8.89;73.88;102897.15;1663319;85;26650;-85
2020/12/07 02:30:22;;;;;;;28.60;6.40;;;;;;;-8.91;73.60;102897.24;1666156;83;21586;-84
2020/12/07 02:32:50;;;;;;;24.90;7.03;;;;;;;-9.11;74.34;102889.54;1670271;85;21219;-84
2020/12/07 02:35:18;;;;;;;24.27;6.90;;;;;;;-9.12;74.45;102887.36;1650866;85;21366;-84
2020/12/07 02:37:46;;;;;;;27.77;7.85;;;;;;;-9.16;74.87;102885.83;1670844;85;21152;-85
2020/12/07 02:40:13;;;;;;;20.45;7.67;;;;;;;-9.19;75.21;102881.59;1683878;82;20994;-84
2020/12/07 02:42:41;;;;;;;23.90;8.30;;;;;;;-9.10;74.79;102894.67;1723418;82;21628;-84
2020/12/07 02:48:47;;;;;;;24.77;7.22;;;;;;;-9.07;74.67;102885.38;1776946;79;21210;-83
2020/12/07 02:51:13;;;;;;;25.25;8.48;;;;;;;-9.05;74.50;102891.37;1778624;79;27044;-84
2020/12/07 02:53:39;;;;;;;20.15;6.70;;;;;;;-8.99;74.36;102896.77;1781268;79;26621;-84
2020/12/07 02:59:46;;;;;;;19.60;6.47;;;;;;;-9.15;74.82;102897.52;1774144;79;21094;-86
2020/12/07 03:02:12;;;;;;;17.12;5.95;;;;;;;-9.10;74.83;102905.11;1773337;79;21218;-84
2020/12/07 03:04:38;;;;;;;22.80;7.10;;;;;;;-9.16;75.06;102900.19;1776134;79;27095;-83
2020/12/07 03:07:04;;;;;;;19.42;7.22;;;;;;;-9.11;74.76;102897.37;1774361;79;27171;-84
2020/12/07 03:09:30;;;;;;;14.55;5.78;;;;;;;-9.08;74.85;102897.22;1764425;80;21181;-84
2020/12/07 03:11:55;;;;;;;16.20;6.03;;;;;;;-9.07;74.59;102897.59;1775871;79;26709;-84
2020/12/07 03:14:21;;;;;;;15.10;5.58;;;;;;;-9.05;74.52;102897.91;1776896;79;22067;-84
2020/12/07 03:16:47;;;;;;;17.20;5.97;;;;;;;-8.97;74.41;102895.77;1776193;79;26986;-84
2020/12/07 03:19:13;;;;;;;27.30;6.80;;;;;;;-9.02;74.17;102906.90;1776834;79;26568;-84
2020/12/07 03:21:39;;;;;;;19.95;6.50;;;;;;;-9.05;74.44;102903.59;1775209;79;28133;-83
2020/12/07 03:24:05;;;;;;;17.32;6.62;;;;;;;-9.09;74.56;102908.09;1776166;79;26754;-84
2020/12/07 03:26:35;;;;;;;15.72;5.53;;;;;;;-9.09;74.62;102901.57;1775536;79;21240;-84
2020/12/07 03:29:03;;;;;;;19.50;6.35;;;;;;;-9.03;74.13;102902.61;1778205;79;21177;-84
2020/12/07 03:31:33;;;;;;;20.43;6.90;;;;;;;-8.99;74.36;102901.99;1776243;79;21536;-84
2020/12/07 03:34:01;;;;;;;23.00;5.70;;;;;;;-8.99;74.18;102900.22;1773468;79;21105;-84
2020/12/07 03:36:27;;;;;;;15.15;5.65;;;;;;;-9.07;74.42;102904.13;1759403;79;21208;-84
2020/12/07 03:38:53;;;;;;;20.77;6.90;;;;;;;-9.00;74.50;102912.03;1775518;79;21192;-84
2020/12/07 03:41:19;;;;;;;20.20;6.28;;;;;;;-9.04;74.52;102905.28;1774006;79;21097;-84
2020/12/07 03:43:46;;;;;;;19.80;6.08;;;;;;;-9.02;74.40;102902.14;1772672;80;21201;-84
2020/12/07 03:46:15;;;;;;;23.83;6.17;;;;;;;-9.03;74.28;102897.81;1776792;79;21150;-84
2020/12/07 03:48:42;;;;;;;18.82;5.80;;;;;;;-8.98;74.12;102895.37;1775810;79;21633;-84
2020/12/07 03:51:08;;;;;;;19.52;6.30;;;;;;;-9.04;74.20;102906.58;1772818;79;21238;-84
2020/12/07 03:53:37;;;;;;;20.43;6.17;;;;;;;-9.03;73.97;102890.86;1775978;79;21122;-84
2020/12/07 03:56:06;;;;;;;16.17;6.87;;;;;;;-8.90;73.77;102895.47;1774039;79;21168;-84
2020/12/07 03:58:32;;;;;;;20.17;6.70;;;;;;;-8.97;74.00;102896.21;1773982;79;21023;-84
2020/12/07 04:00:58;;;;;;;18.25;6.15;;;;;;;-8.93;73.91;102902.99;1776935;79;21098;-83
2020/12/07 04:03:25;;;;;;;23.52;6.00;;;;;;;-9.04;74.42;102908.73;1777028;79;21399;-83
2020/12/07 04:06:12;;;;;;;16.48;6.15;;;;;;;-8.93;73.76;102905.60;1774902;79;21109;-84
2020/12/07 04:08:34;;;;;;;18.85;5.67;;;;;;;-9.08;74.15;102898.53;1774495;79;21276;-84
2020/12/07 04:11:00;;;;;;;17.62;6.30;;;;;;;-8.93;73.60;102909.05;1777654;79;28844;-85
2020/12/07 04:17:07;;;;;;;17.85;6.70;;;;;;;-9.11;74.17;102900.82;1778012;79;21270;-84
2020/12/07 04:19:33;;;;;;;16.37;6.08;;;;;;;-8.99;73.77;102906.75;1776561;79;26941;-84
2020/12/07 04:25:39;;;;;;;19.02;6.85;;;;;;;-9.01;73.47;102917.72;1778073;79;21565;-85
2020/12/07 04:28:05;;;;;;;13.88;5.40;;;;;;;-8.90;73.35;102929.42;1777754;79;26916;-86
2020/12/07 04:30:31;;;;;;;17.48;6.00;;;;;;;-8.98;73.30;102932.40;1776531;79;21626;-85
2020/12/07 04:32:56;;;;;;;16.85;6.30;;;;;;;-9.01;73.53;102933.86;1771654;79;26938;-84
2020/12/07 04:35:22;;;;;;;15.60;5.70;;;;;;;-9.08;73.97;102925.95;1775029;79;26609;-85
2020/12/07 04:37:48;;;;;;;18.52;5.72;;;;;;;-9.11;73.81;102925.63;1774326;79;28915;-86
2020/12/07 04:40:14;;;;;;;16.50;5.78;;;;;;;-9.05;73.79;102916.66;1775898;80;26931;-85
2020/12/07 04:42:43;;;;;;;16.85;5.55;;;;;;;-9.16;73.74;102920.61;1771885;79;22009;-88
2020/12/07 04:48:53;;;;;;;20.62;5.65;;;;;;;-9.03;73.17;102919.58;1726870;82;21224;-84
2020/12/07 04:51:19;;;;;;;18.85;6.42;;;;;;;-9.02;73.38;102909.51;1726791;82;21219;-84
2020/12/07 04:57:25;;;;;;;27.90;7.20;;;;;;;-9.13;73.77;102925.31;1726732;82;21316;-84
2020/12/07 04:59:52;;;;;;;16.67;6.95;;;;;;;-9.00;73.50;102915.95;1702318;82;21285;-84
2020/12/07 05:02:18;;;;;;;19.00;6.15;;;;;;;-9.06;73.38;102916.25;1726925;82;21151;-84
2020/12/07 05:04:44;;;;;;;15.70;5.47;;;;;;;-9.04;73.50;102914.42;1726703;83;28912;-83
2020/12/07 05:07:11;;;;;;;17.62;7.00;;;;;;;-9.07;73.56;102910.65;1726880;82;21068;-84
2020/12/07 05:09:38;;;;;;;24.90;8.58;;;;;;;-9.02;73.47;102906.90;1726839;83;21242;-83
2020/12/07 05:14:43;;;;;;;24.23;7.03;;;;;;;-9.02;73.31;102893.00;1687038;84;21172;-82
2020/12/07 05:17:08;;;;;;;19.23;6.92;;;;;;;-9.03;73.46;102889.98;1686759;85;21293;-85
2020/12/07 05:23:16;;;;;;;20.40;6.50;;;;;;;-9.04;73.50;102879.16;1686721;85;21176;-83
2020/12/07 05:25:48;;;;;;;20.15;6.60;;;;;;;-9.05;73.64;102886.63;1686678;85;21597;-82
2020/12/07 05:28:27;;;;;;;21.55;6.83;;;;;;;-8.99;73.90;102892.84;1686838;85;21100;-82
2020/12/07 05:30:51;;;;;;;19.42;7.25;;;;;;;-9.12;74.06;102909.55;1686444;83;21660;-83
2020/12/07 05:33:18;;;;;;;20.05;6.12;;;;;;;-9.17;74.36;102914.17;1686621;85;21701;-84
2020/12/07 05:35:53;;;;;;;21.17;7.22;;;;;;;-9.12;74.23;102906.95;1686577;85;21902;-83
2020/12/07 05:38:20;;;;;;;20.45;6.97;;;;;;;-8.96;74.13;102898.77;1686603;85;21275;-82
2020/12/07 05:40:46;;;;;;;18.55;7.25;;;;;;;-9.10;74.25;102912.95;1686668;85;21169;-83
2020/12/07 05:43:13;;;;;;;31.75;8.35;;;;;;;-9.07;74.38;102899.74;1696221;82;21140;-83
2020/12/07 05:45:41;;;;;;;21.70;8.20;;;;;;;-9.00;73.98;102901.58;1714268;81;21565;-83
2020/12/07 05:48:10;;;;;;;17.60;6.35;;;;;;;-8.69;73.30;102900.92;1724659;81;21219;-83
2020/12/07 05:50:41;;;;;;;22.82;6.90;;;;;;;-8.38;72.61;102902.80;1712706;82;21549;-83
2020/12/07 05:53:08;;;;;;;25.52;6.85;;;;;;;-8.42;72.00;102905.67;1708240;82;21156;-85
2020/12/07 05:55:34;;;;;;;21.33;5.97;;;;;;;-8.06;71.29;102895.89;1719573;82;21132;-83
2020/12/07 05:58:07;;;;;;;22.00;6.80;;;;;;;-7.97;70.52;102889.76;1716253;81;21184;-82
2020/12/07 06:00:35;;;;;;;19.32;4.75;;;;;;;-7.62;68.99;102901.78;1717577;82;21943;-84
2020/12/07 06:03:05;;;;;;;21.30;6.15;;;;;;;-7.34;67.30;102906.81;1725855;81;21115;-83
2020/12/07 06:05:32;;;;;;;23.73;6.67;;;;;;;-7.27;67.90;102904.22;1720230;81;21179;-84
2020/12/07 06:08:12;;;;;;;20.95;5.45;;;;;;;-6.42;65.36;102900.19;1713797;82;21133;-83
2020/12/07 06:10:50;;;;;;;24.00;6.97;;;;;;;-6.49;64.64;102906.74;1728607;80;21136;-84
2020/12/07 06:13:26;;;;;;;22.98;6.03;;;;;;;-5.29;62.40;102904.95;1687586;82;21218;-84
2020/12/07 06:15:53;;;;;;;21.48;6.10;;;;;;;-5.49;60.88;102900.95;1684985;83;21659;-85
2020/12/07 06:18:35;;;;;;;26.05;7.10;;;;;;;-5.46;60.47;102891.20;1664104;83;21206;-84
2020/12/07 06:21:12;;;;;;;13.78;4.65;;;;;;;-5.15;60.66;102896.63;1686407;82;21242;-87
2020/12/07 06:23:41;;;;;;;15.68;4.70;;;;;;;-5.81;60.78;102887.70;1681114;83;21218;-84
2020/12/07 06:26:10;;;;;;;19.37;5.62;;;;;;;-6.17;61.30;102883.34;1676378;85;21395;-87
2020/12/07 06:28:39;;;;;;;21.42;5.83;;;;;;;-5.43;61.39;102873.45;1685905;82;21225;-85
2020/12/07 06:31:19;;;;;;;19.35;5.03;;;;;;;-6.35;62.12;102899.34;1666123;84;21163;-86
2020/12/07 06:33:49;;;;;;;18.37;5.85;;;;;;;-5.53;58.99;102878.47;1657845;85;21255;-85
2020/12/07 06:36:31;;;;;;;26.02;6.67;;;;;;;-4.85;57.89;102870.13;1607827;87;21649;-86
2020/12/07 06:39:01;;;;;;;28.60;7.92;;;;;;;-5.05;57.20;102878.84;1525822;92;21309;-86
2020/12/07 06:41:43;;;;;;;20.02;5.90;;;;;;;-4.36;54.63;102857.09;1455643;97;21447;-85
2020/12/07 06:44:15;;;;;;;18.40;6.00;;;;;;;-3.92;56.03;102858.89;1456387;97;21295;-85
2020/12/07 06:52:14;;;;;;;19.32;5.58;;;;;;;-4.29;55.20;102876.40;1451920;98;21269;-85
2020/12/07 06:57:52;;;;;;;17.30;5.85;;;;;;;-4.65;53.78;102885.86;1448179;98;21297;-86
2020/12/07 07:00:26;;;;;;;17.65;5.83;;;;;;;-4.34;54.38;102876.25;1378151;104;21368;-86
2020/12/07 07:02:55;;;;;;;19.62;6.05;;;;;;;-3.29;49.72;102872.34;1374104;102;21756;-87
2020/12/07 07:05:24;;;;;;;20.23;7.12;;;;;;;-4.30;52.10;102863.72;1373542;104;22017;-86
2020/12/07 07:07:51;;;;;;;19.00;6.87;;;;;;;-3.45;49.52;102883.14;1378646;103;21249;-84
2020/12/07 07:10:18;;;;;;;25.52;7.90;;;;;;;-1.81;49.62;102859.28;1385747;101;21284;-86
2020/12/07 07:12:46;;;;;;;25.90;7.97;;;;;;;-3.14;49.97;102863.78;1406539;101;21241;-86
2020/12/07 07:15:13;;;;;;;21.55;7.40;;;;;;;-2.74;49.88;102871.33;1403064;101;21304;-86
2020/12/07 07:17:43;;;;;;;25.97;8.73;;;;;;;-2.82;48.30;102885.12;1391459;101;21313;-86
2020/12/07 07:20:12;;;;;;;19.37;6.83;;;;;;;-1.56;46.27;102870.04;1372884;103;21436;-86
2020/12/07 07:22:47;;;;;;;22.98;7.55;;;;;;;-1.35;44.18;102868.81;1371996;103;21303;-86
2020/12/07 07:30:23;;;;;;;30.70;11.03;;;;;;;-1.61;44.32;102877.03;1364150;103;21253;-86
2020/12/07 07:32:52;;;;;;;34.23;11.75;;;;;;;-1.00;46.25;102861.08;1378337;99;21258;-87
2020/12/07 07:35:22;;;;;;;21.95;7.05;;;;;;;-1.27;45.45;102864.20;1426012;99;21293;-86
2020/12/07 07:41:29;;;;;;;17.65;5.33;;;;;;;-2.01;45.45;102866.14;1509476;93;21227;-87
2020/12/07 07:43:57;;;;;;;26.00;9.48;;;;;;;-2.81;47.35;102866.17;1509393;93;21135;-87
2020/12/07 07:46:23;;;;;;;21.37;7.45;;;;;;;-1.42;45.05;102853.06;1524474;93;21186;-86
2020/12/07 07:49:10;;;;;;;33.70;14.87;;;;;;;-0.29;43.29;102848.03;1510136;91;21289;-88
2020/12/07 07:52:11;;;;;;;;;;;;;;;-0.52;40.87;102863.23;1547037;90;21237;-86
2020/12/07 08:03:23;;;;;;;28.00;9.98;;;;;;;0.50;40.92;102861.40;1555865;91;21274;-86
2020/12/07 08:15:57;;;;;;;19.75;6.90;;;;;;;0.43;39.95;102869.53;1532453;91;21304;-85
2020/12/07 08:18:35;;;;;;;22.02;7.08;;;;;;;-1.25;42.53;102856.50;1527357;92;21668;-85
2020/12/07 08:21:02;;;;;;;16.73;5.65;;;;;;;-1.34;43.57;102844.52;1603812;87;21135;-85
2020/12/07 08:23:33;;;;;;;25.55;7.03;;;;;;;-2.65;46.77;102852.16;1608567;88;21284;-85
2020/12/07 08:26:01;;;;;;;17.10;5.67;;;;;;;-2.81;47.37;102838.47;1614145;87;21293;-85
2020/12/07 08:28:41;;;;;;;31.75;8.28;;;;;;;-3.94;50.76;102837.08;1572344;89;21737;-84
2020/12/07 08:31:17;;;;;;;24.50;6.05;;;;;;;-3.64;50.31;102846.40;1566055;89;21325;-85
2020/12/07 08:34:01;;;;;;;25.70;6.30;;;;;;;-4.59;52.86;102836.33;1552455;91;21238;-84
2020/12/07 08:36:31;;;;;;;21.27;7.08;;;;;;;-4.65;54.01;102839.35;1554064;90;21253;-84
2020/12/07 08:38:58;;;;;;;17.25;5.50;;;;;;;-4.80;54.84;102833.82;1506692;93;21183;-84
2020/12/07 08:41:33;;;;;;;22.62;7.10;;;;;;;-4.29;52.75;102847.00;1488225;93;21366;-84
2020/12/07 08:44:02;;;;;;;18.30;6.03;;;;;;;-4.15;52.34;102841.62;1503100;93;21260;-84
2020/12/07 08:46:31;;;;;;;26.00;7.58;;;;;;;-4.80;54.55;102833.82;1510577;94;21320;-85
2020/12/07 08:49:00;;;;;;;33.42;9.00;;;;;;;-5.19;55.94;102832.91;1506760;94;21297;-85
2020/12/07 08:51:28;;;;;;;33.13;9.65;;;;;;;-5.23;55.79;102820.93;1546987;90;21676;-84
2020/12/07 08:53:55;;;;;;;30.40;8.98;;;;;;;-5.08;56.27;102800.19;1572131;90;21295;-84
2020/12/07 08:56:21;;;;;;;22.90;7.42;;;;;;;-4.99;56.36;102803.16;1580039;90;21160;-86
2020/12/07 08:58:47;;;;;;;19.73;6.85;;;;;;;-4.68;55.30;102808.00;1559873;90;21801;-86
2020/12/07 09:01:14;;;;;;;28.47;8.18;;;;;;;-4.56;54.17;102812.89;1577978;90;21373;-85
2020/12/07 09:03:42;;;;;;;19.77;6.60;;;;;;;-4.97;56.03;102795.54;1574171;90;21141;-85
2020/12/07 09:06:12;;;;;;;26.20;7.92;;;;;;;-4.50;54.46;102798.02;1573198;90;21164;-85
2020/12/07 09:08:39;;;;;;;17.17;6.25;;;;;;;-5.00;55.92;102802.77;1577943;89;21264;-85
2020/12/07 09:11:07;;;;;;;21.93;7.03;;;;;;;-4.18;53.86;102789.16;1580350;90;21575;-84
2020/12/07 09:13:35;;;;;;;17.30;5.45;;;;;;;-4.17;54.37;102795.29;1577032;90;21231;-86
2020/12/07 09:16:03;;;;;;;21.23;7.15;;;;;;;-4.51;53.46;102785.80;1601562;86;21694;-84
2020/12/07 09:18:29;;;;;;;22.42;6.85;;;;;;;-3.97;53.53;102791.21;1650231;86;21529;-84
2020/12/07 09:20:55;;;;;;;21.23;6.30;;;;;;;-4.60;55.14;102771.48;1659524;85;21306;-85
2020/12/07 09:23:22;;;;;;;17.85;7.30;;;;;;;-4.11;53.00;102801.44;1670668;84;21172;-85
2020/12/07 09:25:48;;;;;;;15.48;5.10;;;;;;;-3.88;53.02;102799.80;1694209;84;21208;-85
2020/12/07 09:28:14;;;;;;;17.12;5.65;;;;;;;-4.11;53.02;102814.59;1697794;84;21138;-85
2020/12/07 09:30:42;;;;;;;28.65;6.65;;;;;;;-3.85;52.08;102762.70;1699804;83;20963;-84
2020/12/07 09:33:09;;;;;;;21.80;6.40;;;;;;;-3.66;52.66;102778.83;1703514;83;21134;-84
2020/12/07 09:35:35;;;;;;;23.20;7.28;;;;;;;-4.23;53.90;102776.81;1724689;80;21288;-84
2020/12/07 09:38:01;;;;;;;23.87;6.50;;;;;;;-3.90;53.70;102759.55;1777757;79;21176;-85
2020/12/07 09:40:27;;;;;;;26.07;7.78;;;;;;;-3.99;53.06;102769.44;1778701;79;21102;-85
2020/12/07 09:42:53;;;;;;;22.15;6.70;;;;;;;-3.43;52.46;102772.34;1758339;79;21116;-85
2020/12/07 09:45:19;;;;;;;18.23;5.62;;;;;;;-3.61;52.72;102760.06;1774437;79;21014;-85
2020/12/07 09:47:46;;;;;;;20.20;6.25;;;;;;;-3.93;52.52;102762.41;1772490;80;21639;-85
2020/12/07 09:50:12;;;;;;;21.45;6.47;;;;;;;-3.80;52.80;102754.45;1774044;79;21900;-86
2020/12/07 09:52:38;;;;;;;20.43;7.25;;;;;;;-3.73;52.19;102732.83;1777107;79;21097;-85
2020/12/07 09:55:10;;;;;;;24.92;7.87;;;;;;;-3.85;53.15;102760.06;1777037;79;20966;-85
2020/12/07 09:57:36;;;;;;;25.17;8.28;;;;;;;-3.63;52.26;102759.80;1724470;82;21605;-85
2020/12/07 10:00:09;;;;;;;23.95;6.53;;;;;;;-3.57;52.99;102765.45;1709575;82;21150;-85
2020/12/07 10:02:37;;;;;;;27.47;8.33;;;;;;;-3.60;52.38;102774.06;1717527;81;21204;-86
2020/12/07 10:05:05;;;;;;;22.32;6.47;;;;;;;-3.26;51.45;102766.66;1700487;83;21202;-84
2020/12/07 10:07:31;;;;;;;25.82;6.97;;;;;;;-3.36;51.50;102767.45;1703975;83;21194;-85
2020/12/07 10:09:57;;;;;;;26.77;7.30;;;;;;;-3.46;51.77;102769.94;1708269;83;20969;-85
2020/12/07 10:12:23;;;;;;;22.32;6.37;;;;;;;-3.41;52.33;102763.86;1681878;83;21148;-85
2020/12/07 10:14:49;;;;;;;21.48;5.85;;;;;;;-3.56;52.07;102767.61;1690590;83;21824;-85
2020/12/07 10:17:15;;;;;;;20.62;6.22;;;;;;;-3.80;52.99;102765.81;1708830;82;20973;-85
2020/12/07 10:19:43;;;;;;;27.35;7.80;;;;;;;-3.36;51.91;102737.97;1708697;83;20956;-87
2020/12/07 10:22:09;;;;;;;25.43;8.00;;;;;;;-3.54;52.47;102756.48;1718548;83;21657;-85
2020/12/07 10:24:36;;;;;;;20.55;7.00;;;;;;;-3.06;51.32;102741.43;1707824;83;21048;-86
2020/12/07 10:27:02;;;;;;;16.42;5.35;;;;;;;-3.24;52.09;102755.50;1696727;83;22151;-86
2020/12/07 10:29:28;;;;;;;19.73;6.47;;;;;;;-3.38;51.87;102733.31;1680781;83;20978;-85
2020/12/07 10:31:56;;;;;;;16.23;6.25;;;;;;;-3.12;51.54;102732.64;1705863;83;21065;-85
2020/12/07 10:34:26;;;;;;;27.62;5.58;;;;;;;-2.98;51.10;102735.06;1691639;83;21268;-85
2020/12/07 10:36:52;;;;;;;20.75;6.55;;;;;;;-3.45;52.02;102731.59;1693052;83;21169;-85
2020/12/07 10:39:50;;;;;;;23.30;7.00;;;;;;;-3.22;51.82;102732.98;1691243;83;21239;-85
2020/12/07 10:42:16;;;;;;;24.00;6.15;;;;;;;-2.98;51.66;102727.15;1705921;83;21383;-86
2020/12/07 10:44:42;;;;;;;30.37;7.40;;;;;;;-3.42;51.94;102725.26;1705933;83;20956;-85
2020/12/07 10:47:08;;;;;;;20.43;6.05;;;;;;;-2.83;51.18;102724.30;1701087;83;21024;-85
2020/12/07 10:49:34;;;;;;;17.40;6.75;;;;;;;-3.20;51.95;102729.28;1690567;82;21658;-85
2020/12/07 10:52:01;;;;;;;16.73;5.90;;;;;;;-3.40;52.54;102729.11;1705232;82;21085;-85
2020/12/07 10:54:27;;;;;;;19.82;6.60;;;;;;;-3.52;52.74;102748.84;1702237;80;21259;-85
2020/12/07 10:56:53;;;;;;;21.02;6.90;;;;;;;-3.05;51.83;102728.59;1741197;80;20973;-85
2020/12/07 10:59:19;;;;;;;16.75;5.78;;;;;;;-3.27;52.49;102729.37;1742016;80;20953;-85
2020/12/07 11:01:44;;;;;;;19.05;6.03;;;;;;;-3.31;52.31;102732.38;1760368;80;20981;-85
2020/12/07 11:04:10;;;;;;;15.90;5.47;;;;;;;-2.98;51.52;102724.52;1748022;80;21255;-85
2020/12/07 11:06:44;;;;;;;25.32;6.20;;;;;;;-3.11;51.96;102720.31;1776491;79;21017;-86
2020/12/07 11:09:11;;;;;;;19.40;5.67;;;;;;;-3.05;51.63;102722.00;1776027;79;21109;-86
2020/12/07 11:11:37;;;;;;;23.73;7.35;;;;;;;-3.18;51.85;102703.27;1774923;79;21154;-85
2020/12/07 11:14:03;;;;;;;18.82;6.83;;;;;;;-3.14;52.73;102724.51;1752815;79;21208;-85
2020/12/07 11:20:10;;;;;;;16.97;5.12;;;;;;;-2.86;51.65;102712.17;1773954;79;21161;-85
2020/12/07 11:22:36;;;;;;;23.40;6.42;;;;;;;-3.36;51.82;102708.14;1780305;79;20969;-86
2020/12/07 11:25:02;;;;;;;22.77;6.00;;;;;;;-3.03;51.30;102718.78;1778070;79;21116;-85
2020/12/07 11:27:28;;;;;;;19.67;5.83;;;;;;;-3.13;51.84;102701.96;1777526;79;21693;-85
2020/12/07 11:29:57;;;;;;;22.77;6.37;;;;;;;-2.88;51.57;102699.60;1776678;79;21403;-84
2020/12/07 11:32:22;;;;;;;21.25;5.28;;;;;;;-2.97;51.49;102699.84;1773906;79;21658;-85
2020/12/07 11:34:48;;;;;;;20.75;6.95;;;;;;;-3.11;51.73;102719.00;1776819;79;20971;-86
2020/12/07 11:37:14;;;;;;;17.52;5.95;;;;;;;-2.71;51.16;102692.98;1773224;79;21060;-85
2020/12/07 11:39:53;;;;;;;19.57;6.55;;;;;;;-3.00;51.25;102700.08;1775921;79;21082;-85
2020/12/07 11:44:48;;;;;;;19.90;6.05;;;;;;;-2.95;51.13;102684.36;1774604;79;21741;-85
2020/12/07 11:47:14;;;;;;;19.75;5.40;;;;;;;-3.06;51.69;102686.05;1776601;79;20997;-84
2020/12/07 11:49:42;;;;;;;26.75;6.83;;;;;;;-2.95;51.23;102677.77;1775372;79;20939;-85
2020/12/07 11:52:08;;;;;;;21.77;7.80;;;;;;;-2.86;50.97;102656.78;1775912;79;21683;-85
2020/12/07 11:57:04;;;;;;;19.20;6.70;;;;;;;-2.79;50.65;102705.97;1684074;84;21526;-85
2020/12/07 11:59:30;;;;;;;15.60;5.20;;;;;;;-2.93;50.97;102694.32;1677678;84;21570;-86
2020/12/07 12:01:56;;;;;;;20.67;6.50;;;;;;;-2.95;51.07;102683.05;1682088;84;20911;-85
2020/12/07 12:04:22;;;;;;;21.52;7.33;;;;;;;-2.78;50.61;102696.59;1658280;84;20964;-85
2020/12/07 12:06:48;;;;;;;17.20;5.80;;;;;;;-2.86;51.28;102706.90;1647204;86;21856;-87
2020/12/07 12:09:15;;;;;;;18.75;5.87;;;;;;;-3.25;51.63;102699.78;1652755;86;20980;-86
2020/12/07 12:11:45;;;;;;;21.25;6.17;;;;;;;-3.49;52.17;102699.02;1676830;84;21119;-85
2020/12/07 12:14:11;;;;;;;21.40;6.78;;;;;;;-3.08;51.41;102704.26;1675942;84;21099;-85
2020/12/07 12:16:39;;;;;;;19.27;6.90;;;;;;;-3.27;52.01;102710.91;1672921;85;21151;-85
2020/12/07 12:19:11;;;;;;;13.58;5.20;;;;;;;-2.96;51.48;102713.86;1676881;85;21281;-86
2020/12/07 12:21:40;;;;;;;20.10;5.92;;;;;;;-3.36;51.83;102717.38;1672074;84;21089;-86
2020/12/07 12:24:07;;;;;;;16.02;6.05;;;;;;;-3.41;52.82;102712.47;1675360;84;21146;-85
2020/12/07 12:26:35;;;;;;;18.57;6.25;;;;;;;-3.28;52.21;102714.52;1677175;85;21138;-85
2020/12/07 12:29:03;;;;;;;17.27;5.55;;;;;;;-3.52;52.67;102725.60;1674261;85;21155;-85
2020/12/07 12:35:09;;;;;;;16.25;5.08;;;;;;;-3.30;52.32;102718.22;1681155;84;21231;-85
2020/12/07 12:37:35;;;;;;;21.10;5.70;;;;;;;-3.74;52.56;102725.85;1678027;84;20968;-86
2020/12/07 12:40:00;;;;;;;20.72;6.60;;;;;;;-2.94;50.93;102732.19;1669543;84;21126;-85
2020/12/07 12:42:26;;;;;;;22.27;5.70;;;;;;;-3.12;51.25;102718.63;1673845;85;21007;-86
2020/12/07 12:44:52;;;;;;;20.48;5.80;;;;;;;-3.32;51.92;102726.75;1677436;85;21861;-85
2020/12/07 12:47:18;;;;;;;17.75;6.25;;;;;;;-3.24;51.23;102739.68;1675921;85;21070;-86
2020/12/07 12:49:43;;;;;;;24.50;6.55;;;;;;;-3.16;51.70;102729.88;1670101;84;21051;-85